Time;durP1;ratioP1;P1;durP2;ratioP2;P2;SDS_P1;SDS_P2;PMS_P1;PMS_P2;Temp;Humidity;BMP_temperature;BMP_pressure;BME280_temperature;BME280_humidity;BME280_pressure;Samples;Min_cycle;Max_cycle;Signal;HPM_P1;HPM_P2
2022/06/11 00:01:49;;;;;;;1.05;1.05;;;10.60;99.90;;;;;;5113282;28;20065;-77
2022/06/11 00:04:30;;;;;;;0.70;0.70;;;10.60;99.90;;;;;;5114745;28;20023;-77
2022/06/11 00:07:02;;;;;;;2.38;0.93;;;10.60;99.90;;;;;;5112469;28;20063;-76
2022/06/11 00:09:28;;;;;;;0.73;0.73;;;10.60;99.90;;;;;;5112787;27;20105;-77
2022/06/11 00:11:54;;;;;;;0.80;0.80;;;10.60;99.90;;;;;;5117338;28;20044;-76
2022/06/11 00:14:27;;;;;;;0.70;0.70;;;9.20;99.90;;;;;;5116674;28;20020;-76
2022/06/11 00:16:53;;;;;;;0.68;0.68;;;10.50;99.90;;;;;;5117437;28;20035;-78
2022/06/11 00:19:20;;;;;;;1.73;0.90;;;10.40;99.90;;;;;;5119058;28;20020;-78
2022/06/11 00:21:48;;;;;;;1.10;0.75;;;10.50;99.90;;;;;;5118766;28;20024;-78
2022/06/11 00:24:14;;;;;;;1.70;0.98;;;10.50;99.90;;;;;;5116619;28;20028;-77
2022/06/11 00:26:42;;;;;;;1.27;0.70;;;10.50;99.90;;;;;;5111045;28;20495;-77
2022/06/11 00:29:10;;;;;;;0.85;0.85;;;10.40;99.90;;;;;;5114365;28;20427;-79
2022/06/11 00:31:36;;;;;;;1.98;0.77;;;10.40;99.90;;;;;;5112123;28;20089;-78
2022/06/11 00:34:02;;;;;;;0.90;0.90;;;10.40;99.90;;;;;;5111399;28;20558;-79
2022/06/11 00:36:29;;;;;;;0.90;0.90;;;10.40;99.90;;;;;;5111872;28;20024;-79
2022/06/11 00:38:56;;;;;;;1.88;0.80;;;10.40;99.90;;;;;;5113085;28;20023;-77
2022/06/11 00:41:24;;;;;;;1.35;1.10;;;10.40;99.90;;;;;;5114830;28;20123;-78
2022/06/11 00:43:52;;;;;;;0.90;0.75;;;10.40;99.90;;;;;;5117527;28;20413;-78
2022/06/11 00:46:37;;;;;;;0.77;0.77;;;10.30;99.90;;;;;;5120340;28;20039;-78
2022/06/11 00:49:11;;;;;;;0.82;0.82;;;10.30;99.90;;;;;;5117248;28;20059;-80
2022/06/11 00:51:38;;;;;;;0.85;0.85;;;10.20;99.90;;;;;;5115797;28;20031;-78
2022/06/11 00:54:09;;;;;;;1.85;1.50;;;10.10;99.90;;;;;;5118020;28;20024;-79
2022/06/11 00:56:42;;;;;;;2.13;1.92;;;10.00;99.90;;;;;;5116191;28;20048;-79
2022/06/11 00:59:15;;;;;;;1.75;1.05;;;10.00;99.90;;;;;;5116346;28;20055;-77
2022/06/11 01:01:41;;;;;;;0.70;0.70;;;10.10;99.90;;;;;;5114801;28;20027;-78
2022/06/11 01:04:30;;;;;;;1.02;0.73;;;10.10;99.90;;;;;;5112764;28;20417;-79
2022/06/11 01:07:05;;;;;;;4.00;2.17;;;10.10;99.90;;;;;;5112502;28;20035;-77
2022/06/11 01:09:51;;;;;;;1.23;0.70;;;10.00;99.90;;;;;;5113831;28;20028;-77
2022/06/11 01:12:53;;;;;;;1.20;0.80;;;10.00;99.90;;;;;;5114052;28;20031;-77
2022/06/11 01:15:32;;;;;;;0.80;0.80;;;9.90;99.90;;;;;;5115113;28;20396;-80
2022/06/11 01:18:08;;;;;;;0.70;0.60;;;9.80;99.90;;;;;;5113818;28;20286;-79
2022/06/11 01:20:50;;;;;;;1.30;0.80;;;9.70;99.90;;;;;;5111350;28;20027;-79
2022/06/11 01:23:33;;;;;;;2.30;0.85;;;9.70;99.90;;;;;;5115311;28;20045;-79
2022/06/11 01:26:25;;;;;;;4.20;1.00;;;9.70;99.90;;;;;;5113241;28;20038;-78
2022/06/11 01:29:29;;;;;;;2.08;0.85;;;9.70;99.90;;;;;;5097144;28;20135;-78
2022/06/11 01:32:06;;;;;;;0.70;0.70;;;9.60;99.90;;;;;;5079297;28;20062;-80
2022/06/11 01:34:55;;;;;;;1.17;0.73;;;9.60;99.90;;;;;;5097494;28;20485;-79
2022/06/11 01:37:33;;;;;;;0.82;0.82;;;9.60;99.90;;;;;;5089512;28;20051;-78
2022/06/11 01:40:05;;;;;;;0.80;0.80;;;9.60;99.90;;;;;;5089499;28;20507;-79
2022/06/11 01:42:34;;;;;;;1.08;1.08;;;9.50;99.90;;;;;;5086756;28;20520;-78
2022/06/11 01:45:18;;;;;;;1.50;1.35;;;9.50;99.90;;;;;;5089396;28;20043;-79
2022/06/11 01:47:45;;;;;;;1.48;1.27;;;9.50;99.90;;;;;;5088177;28;20047;-77
2022/06/11 01:50:16;;;;;;;1.80;1.10;;;9.50;99.90;;;;;;5091322;28;20031;-78
2022/06/11 01:53:06;;;;;;;1.40;1.08;;;9.60;99.90;;;;;;5087466;28;20040;-78
2022/06/11 01:55:50;;;;;;;2.15;0.80;;;9.60;99.90;;;;;;5087304;28;20488;-78
2022/06/11 01:59:02;;;;;;;0.80;0.80;;;9.70;99.90;;;;;;5086496;28;20049;-78
2022/06/11 02:01:52;;;;;;;1.20;0.90;;;9.60;99.90;;;;;;5061859;28;20070;-78
2022/06/11 02:04:55;;;;;;;2.05;0.95;;;9.50;99.90;;;;;;5088318;28;20031;-77
2022/06/11 02:07:46;;;;;;;0.70;0.70;;;9.40;99.90;;;;;;5003557;28;20312;-79
2022/06/11 02:10:22;;;;;;;2.55;0.90;;;9.60;99.90;;;;;;5050165;28;20550;-79
2022/06/11 02:13:04;;;;;;;2.13;1.40;;;9.60;99.90;;;;;;5086546;28;20059;-77
2022/06/11 02:15:39;;;;;;;1.52;0.70;;;9.60;99.90;;;;;;5088917;28;20031;-77
2022/06/11 02:18:09;;;;;;;2.92;1.05;;;9.60;99.90;;;;;;5086588;28;20036;-77
2022/06/11 02:20:39;;;;;;;2.78;0.90;;;9.50;99.90;;;;;;5089574;28;20012;-79
2022/06/11 02:23:13;;;;;;;1.27;1.08;;;9.50;99.90;;;;;;5099741;28;20074;-79
2022/06/11 02:25:47;;;;;;;1.88;0.90;;;9.50;99.90;;;;;;5102225;28;20092;-79
2022/06/11 02:28:17;;;;;;;4.10;1.20;;;9.40;99.90;;;;;;5092083;28;20024;-79
2022/06/11 02:30:46;;;;;;;0.80;0.80;;;9.30;99.90;;;;;;5090608;28;20110;-79
2022/06/11 02:33:14;;;;;;;1.77;0.90;;;9.30;99.90;;;;;;5090973;28;20028;-79
2022/06/11 02:35:59;;;;;;;1.17;0.82;;;9.20;99.90;;;;;;5091719;28;20048;-79
2022/06/11 02:38:27;;;;;;;0.77;0.77;;;9.20;99.90;;;;;;5090894;28;20024;-79
2022/06/11 02:41:03;;;;;;;1.70;0.80;;;9.10;99.90;;;;;;5093664;28;20405;-78
2022/06/11 02:43:29;;;;;;;1.15;0.93;;;9.00;99.90;;;;;;5095667;28;20020;-78
2022/06/11 02:45:55;;;;;;;1.73;1.10;;;9.10;99.90;;;;;;5095395;28;20036;-79
2022/06/11 02:48:22;;;;;;;2.50;1.35;;;9.10;99.90;;;;;;5095677;28;20259;-78
2022/06/11 02:50:48;;;;;;;3.65;1.20;;;9.10;99.90;;;;;;5094854;28;20017;-78
2022/06/11 02:53:15;;;;;;;2.60;0.98;;;9.20;99.90;;;;;;5093986;28;20020;-77
2022/06/11 02:55:41;;;;;;;0.93;0.82;;;9.20;99.90;;;;;;5095164;28;20035;-78
2022/06/11 02:58:09;;;;;;;2.15;1.08;;;9.10;99.90;;;;;;5094916;28;20051;-78
2022/06/11 03:00:40;;;;;;;3.20;1.13;;;9.10;99.90;;;;;;5093698;28;20027;-78
2022/06/11 03:03:07;;;;;;;1.95;1.02;;;9.00;99.90;;;;;;5093032;28;20059;-78
2022/06/11 03:05:35;;;;;;;2.03;1.00;;;9.00;99.90;;;;;;5091420;28;20537;-78
2022/06/11 03:08:01;;;;;;;3.25;1.70;;;8.90;99.90;;;;;;5089711;28;20032;-78
2022/06/11 03:10:28;;;;;;;1.42;1.33;;;8.90;99.90;;;;;;5091631;28;20027;-78
2022/06/11 03:12:56;;;;;;;4.88;1.10;;;8.80;99.90;;;;;;5093829;28;20468;-79
2022/06/11 03:15:24;;;;;;;2.08;1.08;;;8.70;99.90;;;;;;5096845;28;20024;-78
2022/06/11 03:17:51;;;;;;;1.88;1.02;;;8.80;99.90;;;;;;5098487;28;20044;-78
2022/06/11 03:20:19;;;;;;;1.05;0.85;;;8.80;99.90;;;;;;5098138;28;20389;-78
2022/06/11 03:22:45;;;;;;;0.90;0.90;;;8.80;99.90;;;;;;5097540;28;20103;-78
2022/06/11 03:25:12;;;;;;;0.90;0.90;;;8.80;99.90;;;;;;5099391;28;20039;-78
2022/06/11 03:27:38;;;;;;;2.85;1.40;;;8.70;99.90;;;;;;5096971;28;20036;-78
2022/06/11 03:30:06;;;;;;;1.83;1.13;;;8.70;99.90;;;;;;5093330;28;20028;-78
2022/06/11 03:32:32;;;;;;;1.77;1.35;;;8.70;99.90;;;;;;5093556;28;20419;-78
2022/06/11 03:34:58;;;;;;;0.75;0.73;;;8.70;99.90;;;;;;5092984;28;20110;-78
2022/06/11 03:37:24;;;;;;;2.08;1.00;;;;;;;;;;5092911;28;20032;-78
2022/06/11 03:39:50;;;;;;;1.42;1.10;;;8.80;99.90;;;;;;5093989;28;20030;-78
2022/06/11 03:42:17;;;;;;;1.35;1.25;;;8.80;99.90;;;;;;5094073;28;20028;-79
2022/06/11 03:44:43;;;;;;;2.88;1.20;;;8.80;99.90;;;;;;5094070;28;20027;-78
2022/06/11 03:47:10;;;;;;;1.27;1.17;;;8.80;99.90;;;;;;5092482;28;20036;-79
2022/06/11 03:49:36;;;;;;;1.20;1.10;;;8.70;99.90;;;;;;5092123;28;20024;-79
2022/06/11 03:52:03;;;;;;;1.48;1.25;;;8.80;99.90;;;;;;5093107;28;20480;-79
2022/06/11 03:54:29;;;;;;;1.95;1.40;;;8.80;99.90;;;;;;5092919;28;20027;-79
2022/06/11 03:56:56;;;;;;;2.42;1.08;;;8.80;99.90;;;;;;5095720;28;20031;-78
2022/06/11 03:59:22;;;;;;;2.00;0.93;;;8.90;99.90;;;;;;5099977;28;20184;-79
2022/06/11 04:01:49;;;;;;;1.08;1.00;;;8.90;99.90;;;;;;5097971;28;20024;-78
2022/06/11 04:04:18;;;;;;;1.27;1.20;;;8.90;99.90;;;;;;5099693;28;20031;-78
2022/06/11 04:06:48;;;;;;;0.90;0.90;;;8.90;99.90;;;;;;5099357;28;20031;-78
2022/06/11 04:09:23;;;;;;;1.63;1.42;;;9.30;99.90;;;;;;5100300;28;20114;-78
2022/06/11 04:11:49;;;;;;;1.45;0.80;;;9.30;99.90;;;;;;5100414;28;20035;-79
2022/06/11 04:14:16;;;;;;;2.67;0.90;;;9.50;99.90;;;;;;5096440;28;20028;-78
2022/06/11 04:16:46;;;;;;;2.47;1.48;;;9.70;99.90;;;;;;5094535;28;20123;-78
2022/06/11 04:19:35;;;;;;;0.82;0.82;;;9.70;99.90;;;;;;5094675;28;20488;-78
2022/06/11 04:22:01;;;;;;;1.00;0.90;;;9.70;99.90;;;;;;5096456;28;20024;-79
2022/06/11 04:24:28;;;;;;;1.30;1.10;;;9.70;99.90;;;;;;5096016;28;20073;-79
2022/06/11 04:26:58;;;;;;;1.35;1.00;;;9.70;99.90;;;;;;5094757;28;20040;-78
2022/06/11 04:29:27;;;;;;;1.38;0.75;;;9.90;99.90;;;;;;5095223;28;20020;-79
2022/06/11 04:31:56;;;;;;;0.77;0.77;;;10.00;99.90;;;;;;5096376;28;20032;-79
2022/06/11 04:34:23;;;;;;;0.90;0.90;;;10.00;99.90;;;;;;5097010;28;20036;-79
2022/06/11 04:36:49;;;;;;;2.03;0.80;;;10.00;99.90;;;;;;5094104;28;20472;-79
2022/06/11 04:39:19;;;;;;;0.85;0.80;;;10.20;99.90;;;;;;5095617;28;20020;-79
2022/06/11 04:41:45;;;;;;;1.45;1.30;;;10.40;99.90;;;;;;5096098;28;20028;-79
2022/06/11 04:44:11;;;;;;;0.88;0.85;;;10.70;99.90;;;;;;5095779;28;20476;-78
2022/06/11 04:46:37;;;;;;;4.05;1.00;;;11.10;99.90;;;;;;5094530;28;20052;-79
2022/06/11 04:49:04;;;;;;;1.80;0.95;;;11.40;99.90;;;;;;5094503;28;20020;-79
2022/06/11 04:51:30;;;;;;;1.10;0.70;;;11.70;99.90;;;;;;5093455;28;20115;-79
2022/06/11 04:53:56;;;;;;;0.93;0.93;;;12.00;99.90;;;;;;5094814;28;20024;-79
2022/06/11 04:56:25;;;;;;;0.65;0.55;;;12.30;99.90;;;;;;5092588;28;20024;-79
2022/06/11 04:58:52;;;;;;;3.20;0.80;;;12.40;99.90;;;;;;5093058;28;20024;-79
2022/06/11 05:01:19;;;;;;;0.98;0.60;;;12.20;99.90;;;;;;5097491;28;20038;-79
2022/06/11 05:03:45;;;;;;;3.33;0.68;;;12.20;99.90;;;;;;5093581;28;20024;-80
2022/06/11 05:06:14;;;;;;;0.82;0.65;;;12.20;99.90;;;;;;5094281;28;20038;-79
2022/06/11 05:08:40;;;;;;;0.75;0.75;;;12.10;99.90;;;;;;5093271;28;20028;-78
2022/06/11 05:11:06;;;;;;;0.70;0.70;;;12.10;99.90;;;;;;5094310;28;20024;-79
2022/06/11 05:13:32;;;;;;;1.98;0.80;;;12.20;99.90;;;;;;5094406;28;20091;-79
2022/06/11 05:15:58;;;;;;;1.80;1.20;;;12.30;99.90;;;;;;5094048;28;20024;-79
2022/06/11 05:18:26;;;;;;;1.23;1.13;;;12.30;99.90;;;;;;5093699;28;20028;-79
2022/06/11 05:20:52;;;;;;;3.30;1.00;;;12.50;99.90;;;;;;5092009;28;20024;-78
2022/06/11 05:23:18;;;;;;;1.05;0.90;;;12.60;99.90;;;;;;5093489;28;20523;-78
2022/06/11 05:25:44;;;;;;;0.90;0.90;;;12.70;99.90;;;;;;5092792;28;20016;-79
2022/06/11 05:28:16;;;;;;;2.47;1.77;;;12.80;99.90;;;;;;5093268;28;20024;-79
2022/06/11 05:30:42;;;;;;;1.40;1.00;;;12.80;99.90;;;;;;5093298;28;20024;-78
2022/06/11 05:33:09;;;;;;;1.33;0.93;;;12.90;99.90;;;;;;5094134;28;20035;-79
2022/06/11 05:35:35;;;;;;;1.65;0.90;;;13.10;99.90;;;;;;5093068;28;20063;-79
2022/06/11 05:38:05;;;;;;;3.47;0.80;;;13.10;99.90;;;;;;5092749;28;20039;-78
2022/06/11 05:40:35;;;;;;;0.82;0.82;;;13.30;99.90;;;;;;5092357;28;20384;-79
2022/06/11 05:43:02;;;;;;;1.27;0.82;;;13.50;99.90;;;;;;5090997;28;20059;-75
2022/06/11 05:45:53;;;;;;;1.10;1.10;;;13.70;99.90;;;;;;5090440;28;20028;-74
2022/06/11 05:48:23;;;;;;;1.52;1.15;;;13.90;99.90;;;;;;5087275;28;20036;-73
2022/06/11 05:50:51;;;;;;;2.28;1.25;;;14.10;99.90;;;;;;5094254;28;20020;-75
2022/06/11 05:53:20;;;;;;;1.10;0.75;;;14.10;99.90;;;;;;5094801;28;20024;-73
2022/06/11 05:55:48;;;;;;;2.05;1.55;;;14.30;99.90;;;;;;5091575;28;20031;-75
2022/06/11 05:58:20;;;;;;;1.85;0.70;;;14.50;99.90;;;;;;5094607;28;20026;-73
2022/06/11 06:00:46;;;;;;;1.00;0.90;;;14.50;99.90;;;;;;5099043;28;20030;-73
2022/06/11 06:03:12;;;;;;;1.85;1.52;;;14.70;99.90;;;;;;5096722;28;20020;-73
2022/06/11 06:05:39;;;;;;;1.25;0.88;;;15.00;99.90;;;;;;5092393;28;20024;-74
2022/06/11 06:08:06;;;;;;;0.80;0.80;;;15.10;99.90;;;;;;5090177;28;20402;-77
2022/06/11 06:10:33;;;;;;;2.00;1.13;;;15.40;99.90;;;;;;5090390;28;20016;-77
2022/06/11 06:12:59;;;;;;;1.25;0.90;;;15.40;99.90;;;;;;5099101;28;20031;-78
2022/06/11 06:15:27;;;;;;;1.38;1.27;;;15.50;99.90;;;;;;5096115;28;20032;-76
2022/06/11 06:17:54;;;;;;;1.05;1.05;;;15.70;99.90;;;;;;5096455;28;20028;-76
2022/06/11 06:20:22;;;;;;;1.17;1.08;;;15.70;99.90;;;;;;5087940;28;20016;-76
2022/06/11 06:22:48;;;;;;;1.20;0.85;;;16.00;99.90;;;;;;5102990;28;20027;-76
2022/06/11 06:25:17;;;;;;;0.93;0.93;;;16.20;99.90;;;;;;5106369;28;20032;-77
2022/06/11 06:27:42;;;;;;;2.17;1.20;;;16.10;99.90;;;;;;5108426;28;20035;-77
2022/06/11 06:30:08;;;;;;;2.47;0.82;;;16.10;99.90;;;;;;5106678;28;20045;-77
2022/06/11 06:32:35;;;;;;;3.13;1.35;;;16.00;99.90;;;;;;5106835;28;20584;-76
2022/06/11 06:35:01;;;;;;;1.55;0.90;;;;;;;;;;5109087;28;20032;-77
2022/06/11 06:37:26;;;;;;;0.90;0.85;;;16.30;99.90;;;;;;5108292;28;20030;-77
2022/06/11 06:39:52;;;;;;;1.83;1.23;;;16.60;99.90;;;;;;5109081;27;20394;-78
2022/06/11 06:42:18;;;;;;;0.73;0.73;;;17.50;99.90;;;;;;5108794;28;20119;-77
2022/06/11 06:44:43;;;;;;;0.93;0.88;;;18.90;99.90;;;;;;5108472;28;20026;-76
2022/06/11 06:47:09;;;;;;;2.15;1.45;;;20.00;99.90;;;;;;5109734;28;20056;-77
2022/06/11 06:49:35;;;;;;;1.45;0.80;;;20.90;99.90;;;;;;5109292;28;20027;-77
2022/06/11 06:52:01;;;;;;;1.35;1.02;;;21.60;91.60;;;;;;5109600;28;20027;-77
2022/06/11 06:54:27;;;;;;;1.02;0.93;;;22.00;88.60;;;;;;5109722;28;20510;-77
2022/06/11 06:56:52;;;;;;;1.52;0.70;;;23.10;80.10;;;;;;5109959;28;20024;-77
2022/06/11 06:59:18;;;;;;;1.08;0.85;;;23.80;71.30;;;;;;5109249;28;20090;-75
2022/06/11 07:01:44;;;;;;;1.48;1.05;;;24.40;63.70;;;;;;5110146;28;20455;-77
2022/06/11 07:04:12;;;;;;;3.33;0.60;;;24.70;60.60;;;;;;5108011;28;20121;-75
2022/06/11 07:06:38;;;;;;;1.38;0.68;;;24.70;60.70;;;;;;5109560;28;20038;-74
2022/06/11 07:09:04;;;;;;;0.40;0.40;;;25.10;61.00;;;;;;5109568;28;20012;-74
2022/06/11 07:11:30;;;;;;;1.75;0.43;;;25.60;57.60;;;;;;5109448;28;20063;-74
2022/06/11 07:13:56;;;;;;;1.05;0.50;;;25.70;58.90;;;;;;5108172;28;20076;-74
2022/06/11 07:16:32;;;;;;;0.73;0.40;;;25.70;57.70;;;;;;5109715;28;20028;-75
2022/06/11 07:19:03;;;;;;;1.02;0.50;;;26.00;57.40;;;;;;5109195;28;20073;-74
2022/06/11 07:21:36;;;;;;;1.67;0.40;;;26.30;56.40;;;;;;5108345;28;20024;-74
2022/06/11 07:24:06;;;;;;;2.10;0.40;;;25.40;58.50;;;;;;5108041;28;20024;-74
2022/06/11 07:26:50;;;;;;;1.45;0.93;;;25.50;59.60;;;;;;5109345;28;20102;-75
2022/06/11 07:29:30;;;;;;;1.65;0.50;;;26.00;58.10;;;;;;5109300;28;20601;-74
2022/06/11 07:32:02;;;;;;;2.58;1.00;;;24.70;58.40;;;;;;5107883;28;20035;-78
2022/06/11 07:34:28;;;;;;;0.88;0.50;;;24.10;61.20;;;;;;5107720;28;20134;-76
2022/06/11 07:36:56;;;;;;;1.92;0.77;;;24.20;63.40;;;;;;5108168;28;20059;-77
2022/06/11 07:39:22;;;;;;;0.52;0.47;;;24.10;62.20;;;;;;5109442;28;20077;-75
2022/06/11 07:41:47;;;;;;;0.88;0.70;;;24.20;62.60;;;;;;5109392;28;20472;-76
2022/06/11 07:44:13;;;;;;;0.75;0.60;;;23.90;61.90;;;;;;5108042;28;20027;-77
2022/06/11 07:46:39;;;;;;;1.00;0.90;;;23.70;63.80;;;;;;5107806;28;20384;-78
2022/06/11 07:49:05;;;;;;;5.85;1.10;;;24.70;62.70;;;;;;5107233;28;20028;-77
2022/06/11 07:51:30;;;;;;;0.70;0.68;;;24.90;61.40;;;;;;5108001;28;20027;-75
2022/06/11 07:53:56;;;;;;;1.23;0.60;;;25.10;60.40;;;;;;5107803;28;20027;-77
2022/06/11 07:56:22;;;;;;;1.90;0.50;;;25.70;60.30;;;;;;5108136;28;20025;-79
2022/06/11 07:58:52;;;;;;;2.22;0.95;;;24.50;60.50;;;;;;5109571;28;20046;-78
2022/06/11 08:01:19;;;;;;;0.93;0.70;;;24.50;62.90;;;;;;5109252;28;20047;-77
2022/06/11 08:03:44;;;;;;;0.75;0.50;;;25.30;61.20;;;;;;5107129;28;20159;-77
2022/06/11 08:06:10;;;;;;;1.20;0.50;;;25.70;61.20;;;;;;5107780;28;20054;-77
2022/06/11 08:08:37;;;;;;;1.40;0.63;;;26.50;58.10;;;;;;5109037;28;20022;-74
2022/06/11 08:11:04;;;;;;;1.05;0.70;;;24.90;60.40;;;;;;5109249;28;20048;-76
2022/06/11 08:13:30;;;;;;;2.28;0.73;;;24.70;58.50;;;;;;5111521;28;20114;-77
2022/06/11 08:15:57;;;;;;;0.75;0.60;;;24.60;59.20;;;;;;5111295;28;20024;-77
2022/06/11 08:18:24;;;;;;;0.68;0.60;;;25.40;58.70;;;;;;5112628;28;20031;-78
2022/06/11 08:20:51;;;;;;;0.75;0.70;;;24.70;64.50;;;;;;5110715;28;20075;-79
2022/06/11 08:23:18;;;;;;;0.50;0.50;;;24.60;60.70;;;;;;5112358;27;20149;-77
2022/06/11 08:25:44;;;;;;;2.05;0.85;;;24.30;64.40;;;;;;5112234;28;20380;-79
2022/06/11 08:28:13;;;;;;;0.80;0.52;;;24.10;63.70;;;;;;5112517;28;20028;-77
2022/06/11 08:30:39;;;;;;;0.73;0.50;;;24.80;61.20;;;;;;5112594;28;20147;-77
2022/06/11 08:33:04;;;;;;;1.25;0.60;;;25.40;61.10;;;;;;5112447;28;20028;-78
2022/06/11 08:35:33;;;;;;;1.95;0.77;;;25.40;60.40;;;;;;5111992;28;20050;-77
2022/06/11 08:37:59;;;;;;;1.20;0.50;;;26.20;58.80;;;;;;5112199;28;20035;-77
2022/06/11 08:40:40;;;;;;;1.58;0.60;;;26.60;58.70;;;;;;5112192;28;20028;-76
2022/06/11 08:43:36;;;;;;;1.42;0.60;;;26.60;58.60;;;;;;5112118;28;20353;-78
2022/06/11 08:46:07;;;;;;;2.53;0.50;;;26.00;57.80;;;;;;5112198;27;20051;-74
2022/06/11 08:48:51;;;;;;;1.15;0.47;;;26.20;57.10;;;;;;5112183;28;20028;-76
2022/06/11 08:51:35;;;;;;;0.52;0.50;;;26.10;57.20;;;;;;5111848;28;20483;-76
2022/06/11 08:54:16;;;;;;;1.00;0.63;;;25.80;58.20;;;;;;5111963;28;20106;-76
2022/06/11 08:56:51;;;;;;;10.80;1.60;;;24.90;59.10;;;;;;5112149;28;20016;-76
2022/06/11 08:59:44;;;;;;;0.60;0.60;;;24.90;61.80;;;;;;5112122;28;20019;-76
2022/06/11 09:02:30;;;;;;;2.90;0.73;;;25.30;59.30;;;;;;5111935;28;20281;-75
2022/06/11 09:05:23;;;;;;;0.95;0.40;;;25.40;61.80;;;;;;5111773;28;20026;-76
2022/06/11 09:08:16;;;;;;;0.70;0.50;;;25.30;60.50;;;;;;5111645;28;20107;-78
2022/06/11 09:10:53;;;;;;;2.13;0.57;;;27.90;61.40;;;;;;5111625;28;20280;-77
2022/06/11 09:13:43;;;;;;;0.50;0.50;;;26.20;57.20;;;;;;5111363;28;20030;-76
2022/06/11 09:16:27;;;;;;;1.48;0.47;;;26.30;57.70;;;;;;5110111;28;20027;-77
2022/06/11 09:18:55;;;;;;;1.05;0.82;;;25.80;58.40;;;;;;5111316;28;20043;-76
2022/06/11 09:21:27;;;;;;;1.75;0.60;;;25.30;57.40;;;;;;5109931;28;20047;-79
2022/06/11 09:24:16;;;;;;;0.60;0.60;;;24.80;58.30;;;;;;5110947;28;20030;-75
2022/06/11 09:27:18;;;;;;;1.25;0.70;;;25.60;56.60;;;;;;5102850;28;20052;-75
2022/06/11 09:30:02;;;;;;;0.85;0.52;;;25.30;55.00;;;;;;5109436;28;20068;-76
2022/06/11 09:32:52;;;;;;;2.40;0.57;;;25.50;55.00;;;;;;5109695;28;20072;-75
2022/06/11 09:35:20;;;;;;;1.60;0.68;;;25.70;53.50;;;;;;5109379;28;20067;-76
2022/06/11 09:37:50;;;;;;;0.88;0.55;;;26.00;52.40;;;;;;5109473;28;20268;-76
2022/06/11 09:40:49;;;;;;;0.47;0.32;;;26.00;52.40;;;;;;5111052;28;20027;-75
2022/06/11 09:43:41;;;;;;;1.00;0.50;;;26.10;49.50;;;;;;5109903;28;20028;-75
2022/06/11 09:46:24;;;;;;;0.50;0.45;;;25.90;50.90;;;;;;5108141;28;20499;-76
2022/06/11 09:49:08;;;;;;;1.20;0.43;;;26.00;51.40;;;;;;5094850;27;20481;-76
2022/06/11 09:51:54;;;;;;;0.45;0.38;;;26.20;53.40;;;;;;5107908;28;20055;-76
2022/06/11 09:54:35;;;;;;;0.55;0.43;;;27.10;49.80;;;;;;5106520;28;20033;-76
2022/06/11 09:57:41;;;;;;;0.30;0.30;;;27.40;48.80;;;;;;5103920;28;20042;-76
2022/06/11 10:00:24;;;;;;;0.55;0.32;;;26.30;50.80;;;;;;5103830;28;20247;-76
2022/06/11 10:06:06;;;;;;;0.47;0.47;;;26.30;51.80;;;;;;5095257;28;20071;-77
2022/06/11 10:08:58;;;;;;;1.35;0.43;;;26.50;50.00;;;;;;5103660;28;20396;-77
2022/06/11 10:11:26;;;;;;;0.50;0.50;;;26.60;51.70;;;;;;5106243;28;20031;-76
2022/06/11 10:14:28;;;;;;;0.82;0.40;;;26.30;50.60;;;;;;5106534;28;20400;-77
2022/06/11 10:16:55;;;;;;;2.42;0.82;;;26.80;52.00;;;;;;5106474;28;20063;-76
2022/06/11 10:19:56;;;;;;;0.50;0.40;;;27.50;48.50;;;;;;5106949;28;20499;-77
2022/06/11 10:22:37;;;;;;;0.73;0.60;;;27.80;49.50;;;;;;5028526;28;20025;-76
2022/06/11 10:25:33;;;;;;;1.27;0.50;;;27.60;47.50;;;;;;5103222;28;20038;-77
2022/06/11 10:28:22;;;;;;;0.40;0.30;;;28.20;47.20;;;;;;5110000;28;20089;-75
2022/06/11 10:31:06;;;;;;;1.58;0.55;;;27.30;49.40;;;;;;5089684;28;20082;-72
2022/06/11 10:33:48;;;;;;;1.13;0.40;;;27.80;48.10;;;;;;5087970;28;20084;-76
2022/06/11 10:36:44;;;;;;;0.95;0.35;;;28.00;48.60;;;;;;5089533;28;20321;-77
2022/06/11 10:39:28;;;;;;;2.95;0.50;;;28.10;47.80;;;;;;5094258;28;20290;-77
2022/06/11 10:42:14;;;;;;;0.40;0.30;;;27.90;47.80;;;;;;5087888;28;20111;-78
2022/06/11 10:44:51;;;;;;;0.70;0.40;;;27.70;47.70;;;;;;5087055;28;20020;-78
2022/06/11 10:47:39;;;;;;;0.75;0.40;;;28.00;47.30;;;;;;5087761;28;20036;-79
2022/06/11 10:50:20;;;;;;;2.05;0.38;;;28.50;49.70;;;;;;5087676;28;20115;-78
2022/06/11 10:53:04;;;;;;;1.15;1.05;;;29.00;48.10;;;;;;5086747;28;20054;-77
2022/06/11 10:55:40;;;;;;;0.75;0.52;;;29.20;48.00;;;;;;5086527;28;20098;-78
2022/06/11 10:58:21;;;;;;;0.50;0.50;;;28.90;46.90;;;;;;5086838;28;20024;-77
2022/06/11 11:00:58;;;;;;;1.45;0.50;;;28.50;47.00;;;;;;5089507;28;20073;-79
2022/06/11 11:03:41;;;;;;;5.60;1.95;;;27.90;49.10;;;;;;5087951;28;20092;-78
2022/06/11 11:06:10;;;;;;;1.55;0.88;;;28.50;49.10;;;;;;5086968;28;20473;-78
2022/06/11 11:08:48;;;;;;;1.15;0.40;;;29.20;49.20;;;;;;5089463;28;20069;-79
2022/06/11 11:11:15;;;;;;;0.47;0.40;;;29.30;47.60;;;;;;5087222;28;20234;-78
2022/06/11 11:13:44;;;;;;;1.17;0.45;;;29.70;47.60;;;;;;5089034;28;20024;-78
2022/06/11 11:16:13;;;;;;;0.73;0.40;;;29.10;49.00;;;;;;5089315;28;20107;-78
2022/06/11 11:18:45;;;;;;;1.48;0.85;;;29.60;48.30;;;;;;5088150;28;20056;-77
2022/06/11 11:21:38;;;;;;;0.82;0.50;;;28.70;47.20;;;;;;5088843;28;20149;-78
2022/06/11 11:24:14;;;;;;;0.63;0.63;;;28.10;50.20;;;;;;5061975;28;20032;-79
2022/06/11 11:27:11;;;;;;;0.30;0.30;;;29.00;46.60;;;;;;5087173;28;20032;-79
2022/06/11 11:29:48;;;;;;;0.65;0.25;;;29.60;46.70;;;;;;5075539;28;20469;-79
2022/06/11 11:32:35;;;;;;;0.85;0.47;;;29.50;48.40;;;;;;5088001;28;20031;-78
2022/06/11 11:35:29;;;;;;;4.65;1.17;;;30.30;46.80;;;;;;5088862;28;20530;-78
2022/06/11 11:38:22;;;;;;;2.00;0.30;;;30.50;46.30;;;;;;5086911;28;20315;-78
2022/06/11 11:40:48;;;;;;;0.88;0.60;;;30.10;47.30;;;;;;5088250;28;20447;-76
2022/06/11 11:43:15;;;;;;;0.38;0.35;;;30.30;46.90;;;;;;5087369;28;20028;-78
2022/06/11 11:46:02;;;;;;;0.50;0.50;;;30.00;44.80;;;;;;5088623;28;20422;-78
2022/06/11 11:48:33;;;;;;;0.73;0.30;;;29.50;44.50;;;;;;5092754;28;20107;-78
2022/06/11 11:51:17;;;;;;;1.13;0.50;;;29.60;45.20;;;;;;5092472;28;20035;-77
2022/06/11 11:53:48;;;;;;;0.68;0.60;;;30.30;45.10;;;;;;5091013;28;20038;-79
2022/06/11 11:56:31;;;;;;;0.30;0.30;;;30.40;45.20;;;;;;5091300;28;20026;-78
2022/06/11 11:59:02;;;;;;;0.40;0.40;;;30.00;45.10;;;;;;5090293;28;20031;-77
2022/06/11 12:01:30;;;;;;;2.05;0.50;;;30.00;45.50;;;;;;5092600;28;20488;-79
2022/06/11 12:04:07;;;;;;;1.27;0.30;;;29.70;45.40;;;;;;5091247;28;20110;-78
2022/06/11 12:06:37;;;;;;;0.47;0.40;;;29.50;44.90;;;;;;5092119;28;20040;-77
2022/06/11 12:09:21;;;;;;;2.05;0.95;;;29.60;45.40;;;;;;5092748;28;20368;-77
2022/06/11 12:12:04;;;;;;;1.50;0.50;;;29.50;46.70;;;;;;5092492;28;20020;-78
2022/06/11 12:14:36;;;;;;;0.73;0.35;;;30.30;45.80;;;;;;5092560;28;20027;-78
2022/06/11 12:17:44;;;;;;;0.45;0.40;;;30.40;45.10;;;;;;5090820;28;20017;-78
2022/06/11 12:20:33;;;;;;;0.30;0.30;;;31.10;44.20;;;;;;5091642;28;20098;-79
2022/06/11 12:23:24;;;;;;;0.60;0.60;;;30.30;45.60;;;;;;5091031;28;20508;-78
2022/06/11 12:26:13;;;;;;;1.13;0.30;;;30.40;46.10;;;;;;5092173;28;20024;-77
2022/06/11 12:28:44;;;;;;;0.35;0.28;;;30.40;46.60;;;;;;5090907;28;20032;-78
2022/06/11 12:31:14;;;;;;;1.52;0.30;;;31.30;44.20;;;;;;5090690;28;20089;-78
2022/06/11 12:33:43;;;;;;;1.23;0.90;;;31.60;43.90;;;;;;5091823;28;20028;-77
2022/06/11 12:36:42;;;;;;;0.95;0.30;;;31.90;45.10;;;;;;5069912;28;20041;-77
2022/06/11 12:39:24;;;;;;;0.20;0.20;;;32.40;42.90;;;;;;5071959;28;20033;-78
2022/06/11 12:41:57;;;;;;;1.92;0.43;;;32.40;43.10;;;;;;5071579;28;20025;-76
2022/06/11 12:44:50;;;;;;;0.30;0.20;;;32.70;41.60;;;;;;5071674;28;20025;-76
2022/06/11 12:47:18;;;;;;;0.30;0.30;;;33.10;43.30;;;;;;5071548;28;20024;-78
2022/06/11 12:49:53;;;;;;;0.55;0.40;;;31.60;41.90;;;;;;5071465;28;20031;-77
2022/06/11 12:52:42;;;;;;;1.00;0.30;;;31.90;42.50;;;;;;5071234;28;20393;-77
2022/06/11 12:55:24;;;;;;;0.70;0.15;;;31.50;44.60;;;;;;5071456;28;20033;-78
2022/06/11 12:58:07;;;;;;;0.77;0.77;;;32.10;42.60;;;;;;5068933;28;20039;-74
2022/06/11 13:00:39;;;;;;;1.15;0.35;;;31.70;41.80;;;;;;5071386;28;20027;-78
2022/06/11 13:03:38;;;;;;;0.32;0.32;;;32.00;42.30;;;;;;5071280;28;20054;-78
2022/06/11 13:06:51;;;;;;;0.40;0.35;;;30.80;42.60;;;;;;5069530;28;20055;-77
2022/06/11 13:09:48;;;;;;;1.17;0.40;;;30.90;41.90;;;;;;5060040;28;20043;-77
2022/06/11 13:12:56;;;;;;;0.95;0.30;;;32.10;42.60;;;;;;5070885;28;20024;-76
2022/06/11 13:15:51;;;;;;;0.75;0.52;;;32.80;41.30;;;;;;5070756;28;20027;-77
2022/06/11 13:18:40;;;;;;;3.38;0.40;;;32.30;40.60;;;;;;5070870;28;20085;-76
2022/06/11 13:21:09;;;;;;;1.25;0.50;;;31.70;41.90;;;;;;5070788;28;20104;-78
2022/06/11 13:23:35;;;;;;;0.85;0.30;;;31.40;40.90;;;;;;5071147;28;20108;-76
2022/06/11 13:26:13;;;;;;;1.13;0.95;;;31.50;41.40;;;;;;5070703;28;20108;-77
2022/06/11 13:28:41;;;;;;;0.40;0.35;;;;;;;;;;5069384;28;20025;-76
2022/06/11 13:31:32;;;;;;;0.47;0.40;;;30.90;41.80;;;;;;5070353;28;20032;-77